< < Back
Terminal Aerodrome Forecast


Current Version              Previous Versions:   1  2  3  4  5  6  7  8  9  

Terminal Aerodrome Forecast

757
FTUS44 KHUN 242331
TAFHSV
TAF
KHSV 242331Z 2500/2524 VRB03KT P6SM SKC
      TEMPO 2510/2514 5SM BR SKC
     FM251400 20005KT P6SM SCT250
     FM251900 23010G20KT P6SM BKN100=

Latest METAR

367
SAUS80 KWBC 251000 RRA
MTRHSV
METAR KHSV 250953Z AUTO 10004KT 10SM CLR 00/M03 A2990 RMK AO2 SLP126
T00001028


USA.gov is the U.S. government's official web portal to all federal, state and local government web resources and services.